Time;durP1;ratioP1;P1;durP2;ratioP2;P2;SDS_P1;SDS_P2;PMS_P1;PMS_P2;Temp;Humidity;BMP_temperature;BMP_pressure;BME280_temperature;BME280_humidity;BME280_pressure;Samples;Min_cycle;Max_cycle;Signal;HPM_P1;HPM_P2
2022/04/23 00:01:31;;;;;;;21.37;19.27;;;11.30;99.90;;;;;;5031725;28;20198;-42
2022/04/23 00:03:57;;;;;;;21.87;19.50;;;11.20;99.90;;;;;;5030146;28;20214;-43
2022/04/23 00:06:22;;;;;;;20.97;18.77;;;11.20;99.90;;;;;;5024315;28;20198;-42
2022/04/23 00:08:48;;;;;;;20.60;18.40;;;11.30;99.90;;;;;;5032012;28;20198;-43
2022/04/23 00:11:13;;;;;;;19.53;17.63;;;11.40;99.90;;;;;;5031671;28;20265;-43
2022/04/23 00:13:39;;;;;;;20.37;18.33;;;11.50;99.90;;;;;;5032227;28;20217;-42
2022/04/23 00:16:05;;;;;;;21.50;19.30;;;11.30;99.90;;;;;;5032147;28;20660;-43
2022/04/23 00:18:31;;;;;;;21.13;18.80;;;11.30;99.90;;;;;;5032028;28;20187;-42
2022/04/23 00:20:57;;;;;;;20.00;18.00;;;11.30;99.90;;;;;;5021347;28;20982;-42
2022/04/23 00:23:23;;;;;;;20.33;18.30;;;11.30;99.90;;;;;;5031724;28;20520;-43
2022/04/23 00:25:52;;;;;;;19.40;17.10;;;11.30;99.90;;;;;;5050986;28;20502;-42
2022/04/23 00:28:18;;;;;;;17.93;15.93;;;11.40;99.90;;;;;;5045383;28;20193;-42
2022/04/23 00:30:45;;;;;;;19.03;17.13;;;11.40;99.90;;;;;;5050308;28;20478;-43
2022/04/23 00:33:10;;;;;;;18.17;16.37;;;11.50;99.90;;;;;;5051843;28;20507;-42
2022/04/23 00:35:36;;;;;;;17.90;16.10;;;11.50;99.90;;;;;;5028839;28;21045;-42
2022/04/23 00:38:03;;;;;;;19.27;17.20;;;11.60;99.90;;;;;;5029735;28;20183;-42
2022/04/23 00:40:30;;;;;;;18.70;16.90;;;11.60;99.90;;;;;;5030829;28;20421;-42
2022/04/23 00:42:58;;;;;;;18.80;17.00;;;11.60;99.90;;;;;;5031764;28;20464;-42
2022/04/23 00:45:25;;;;;;;18.97;17.07;;;11.60;99.90;;;;;;5031508;28;20460;-42
2022/04/23 00:47:51;;;;;;;17.60;15.80;;;11.60;99.90;;;;;;5031920;28;20426;-42
2022/04/23 00:50:21;;;;;;;19.23;17.40;;;11.50;99.90;;;;;;5026263;28;20433;-42
2022/04/23 00:53:03;;;;;;;19.20;17.20;;;11.50;99.90;;;;;;5027376;28;20421;-42
2022/04/23 00:55:32;;;;;;;18.27;16.10;;;11.50;99.90;;;;;;5027405;28;20429;-42
2022/04/23 00:57:59;;;;;;;17.33;15.53;;;11.40;99.90;;;;;;5031304;28;20449;-42
2022/04/23 01:00:25;;;;;;;17.83;15.93;;;11.40;99.90;;;;;;5030557;28;20425;-43
2022/04/23 01:02:54;;;;;;;17.97;16.07;;;11.30;99.90;;;;;;5031146;28;20483;-42
2022/04/23 01:05:24;;;;;;;19.97;17.87;;;11.40;99.90;;;;;;5023894;28;20473;-42
2022/04/23 01:07:51;;;;;;;18.70;16.17;;;11.30;99.90;;;;;;5028590;28;20967;-42
2022/04/23 01:10:17;;;;;;;19.73;16.27;;;11.40;99.90;;;;;;5030474;28;21081;-42
2022/04/23 01:12:45;;;;;;;20.00;17.23;;;11.40;99.90;;;;;;5031125;28;20448;-42
2022/04/23 01:15:13;;;;;;;19.80;17.23;;;11.60;99.90;;;;;;5030988;28;20989;-42
2022/04/23 01:17:40;;;;;;;20.40;18.20;;;11.30;99.90;;;;;;5030931;28;20432;-42
2022/04/23 01:20:13;;;;;;;21.53;19.23;;;11.40;99.90;;;;;;5023757;28;20436;-43
2022/04/23 01:22:41;;;;;;;21.67;19.27;;;11.30;99.90;;;;;;5027033;28;20429;-43
2022/04/23 01:25:10;;;;;;;21.90;18.17;;;11.30;99.90;;;;;;5032309;28;20461;-42
2022/04/23 01:27:37;;;;;;;21.00;18.80;;;11.40;99.90;;;;;;5050633;28;20415;-42
2022/04/23 01:30:05;;;;;;;22.73;19.63;;;11.30;99.90;;;;;;5046137;28;20448;-42
2022/04/23 01:32:30;;;;;;;26.30;21.57;;;11.40;99.90;;;;;;5050494;28;20428;-42
2022/04/23 01:34:56;;;;;;;25.97;22.03;;;11.30;99.90;;;;;;5043354;28;20553;-42
2022/04/23 01:37:22;;;;;;;24.93;22.17;;;11.30;99.90;;;;;;5023550;28;20600;-42
2022/04/23 01:39:48;;;;;;;24.90;22.23;;;11.30;99.90;;;;;;5030058;28;20186;-42
2022/04/23 01:42:17;;;;;;;25.83;23.03;;;11.30;99.90;;;;;;5030519;28;20199;-43
2022/04/23 01:44:44;;;;;;;27.53;24.53;;;11.30;99.90;;;;;;5030414;28;20472;-42
2022/04/23 01:47:10;;;;;;;28.07;25.07;;;11.30;99.90;;;;;;5030728;28;20524;-43
2022/04/23 01:49:36;;;;;;;28.97;25.63;;;11.30;99.90;;;;;;5027933;28;20456;-43
2022/04/23 01:52:01;;;;;;;31.43;26.97;;;11.20;99.90;;;;;;5023692;28;20549;-43
2022/04/23 01:54:27;;;;;;;31.57;25.83;;;11.30;99.90;;;;;;5030218;28;20195;-42
2022/04/23 01:56:57;;;;;;;29.63;26.27;;;11.20;99.90;;;;;;5030012;28;20217;-42
2022/04/23 01:59:22;;;;;;;28.50;25.50;;;11.20;99.90;;;;;;5030161;28;20206;-43
2022/04/23 02:01:49;;;;;;;29.30;26.03;;;11.30;99.90;;;;;;5029562;28;20803;-42
2022/04/23 02:04:15;;;;;;;29.93;26.67;;;11.20;99.90;;;;;;5027211;28;20229;-42
2022/04/23 02:06:40;;;;;;;31.30;27.90;;;11.20;99.90;;;;;;5020850;28;20441;-42
2022/04/23 02:09:06;;;;;;;30.47;27.17;;;11.20;99.90;;;;;;5029829;28;20191;-42
2022/04/23 02:11:32;;;;;;;31.67;28.27;;;11.20;99.90;;;;;;5029306;28;20182;-43
2022/04/23 02:13:58;;;;;;;31.20;26.80;;;11.10;99.90;;;;;;5028635;28;20281;-42
2022/04/23 02:16:25;;;;;;;29.50;26.40;;;11.10;99.90;;;;;;5029859;28;20178;-42
2022/04/23 02:18:50;;;;;;;29.50;26.50;;;11.10;99.90;;;;;;5029961;28;20421;-42
2022/04/23 02:21:16;;;;;;;29.77;26.60;;;11.20;99.90;;;;;;5020900;28;20455;-42
2022/04/23 02:23:43;;;;;;;29.07;25.30;;;11.10;99.90;;;;;;5031422;28;20191;-42
2022/04/23 02:26:09;;;;;;;28.90;25.80;;;11.10;99.90;;;;;;5040758;28;20427;-42
2022/04/23 02:28:38;;;;;;;31.87;27.70;;;11.10;99.90;;;;;;5047457;28;20416;-43
2022/04/23 02:31:05;;;;;;;30.60;26.10;;;11.10;99.90;;;;;;5038195;28;20903;-42
2022/04/23 02:33:31;;;;;;;30.50;27.17;;;11.10;99.90;;;;;;5049655;28;20425;-42
2022/04/23 02:35:57;;;;;;;29.50;26.00;;;11.20;99.90;;;;;;5032145;28;20967;-42
2022/04/23 02:38:23;;;;;;;30.03;26.53;;;11.30;99.90;;;;;;5025726;28;20190;-42
2022/04/23 02:40:48;;;;;;;29.97;26.73;;;11.10;99.90;;;;;;5028764;28;20194;-43
2022/04/23 02:43:14;;;;;;;30.30;26.23;;;11.10;99.90;;;;;;5029578;28;20660;-43
2022/04/23 02:45:41;;;;;;;30.90;27.60;;;11.30;99.90;;;;;;5029589;28;20226;-42
2022/04/23 02:48:10;;;;;;;32.03;27.40;;;11.10;99.90;;;;;;5028099;28;20607;-42
2022/04/23 02:50:38;;;;;;;29.67;25.30;;;11.20;99.90;;;;;;5023263;28;20434;-42
2022/04/23 02:53:08;;;;;;;31.37;27.90;;;11.10;99.90;;;;;;5026976;28;20483;-42
2022/04/23 02:55:35;;;;;;;30.33;26.30;;;11.20;99.90;;;;;;5029403;28;20429;-42
2022/04/23 02:58:09;;;;;;;31.83;26.67;;;11.10;99.90;;;;;;5029127;28;20440;-43
2022/04/23 03:00:35;;;;;;;29.70;26.00;;;11.00;99.90;;;;;;5028665;28;20444;-43
2022/04/23 03:03:01;;;;;;;28.90;25.80;;;11.20;99.90;;;;;;5029109;28;20822;-42
2022/04/23 03:05:27;;;;;;;28.73;25.47;;;11.00;99.90;;;;;;5023969;28;20465;-43
2022/04/23 03:07:53;;;;;;;29.53;26.33;;;11.00;99.90;;;;;;5020558;28;20205;-42
2022/04/23 03:10:19;;;;;;;30.20;25.43;;;11.00;99.90;;;;;;5020509;28;20500;-42
2022/04/23 03:12:46;;;;;;;30.83;27.20;;;11.00;99.90;;;;;;5028963;28;20186;-42
2022/04/23 03:15:15;;;;;;;29.07;25.97;;;11.10;99.90;;;;;;5029018;28;20433;-42
2022/04/23 03:17:41;;;;;;;28.60;25.43;;;11.10;99.90;;;;;;5028708;28;20440;-42
2022/04/23 03:20:08;;;;;;;30.83;25.80;;;11.00;99.90;;;;;;5028105;28;20421;-42
2022/04/23 03:22:34;;;;;;;28.10;24.73;;;11.00;99.90;;;;;;5017461;28;20201;-43
2022/04/23 03:25:00;;;;;;;28.00;24.97;;;11.00;99.90;;;;;;5031256;28;20499;-42
2022/04/23 03:27:26;;;;;;;30.37;26.43;;;10.90;99.90;;;;;;5027686;28;21022;-43
2022/04/23 03:29:52;;;;;;;29.73;26.53;;;10.90;99.90;;;;;;5028287;28;20190;-42
2022/04/23 03:32:18;;;;;;;28.50;24.37;;;11.00;99.90;;;;;;5029006;28;20422;-42
2022/04/23 03:34:43;;;;;;;28.67;25.27;;;11.00;99.90;;;;;;5028603;28;20786;-42
2022/04/23 03:37:10;;;;;;;30.17;25.33;;;11.10;99.90;;;;;;5022242;28;20444;-42
2022/04/23 03:39:36;;;;;;;29.63;25.73;;;11.00;99.90;;;;;;5028390;28;20417;-42
2022/04/23 03:42:03;;;;;;;30.03;26.67;;;11.10;99.90;;;;;;5028570;28;20437;-43
2022/04/23 03:44:30;;;;;;;27.43;24.53;;;10.90;99.90;;;;;;5028730;28;20465;-42
2022/04/23 03:46:57;;;;;;;29.73;26.63;;;11.00;99.90;;;;;;5028719;28;20418;-42
2022/04/23 03:49:23;;;;;;;30.37;25.40;;;11.00;99.90;;;;;;5028647;28;20421;-42
2022/04/23 03:51:49;;;;;;;30.20;24.80;;;11.00;99.90;;;;;;5018433;28;20437;-42
2022/04/23 03:54:16;;;;;;;27.63;24.73;;;11.00;99.90;;;;;;5028218;28;20428;-43
2022/04/23 03:56:42;;;;;;;28.73;24.60;;;11.00;99.90;;;;;;5028323;28;20440;-43
2022/04/23 03:59:08;;;;;;;30.10;26.10;;;11.10;99.90;;;;;;5028752;28;20432;-42
2022/04/23 04:01:34;;;;;;;29.37;25.97;;;11.10;99.90;;;;;;5027550;28;20432;-42
2022/04/23 04:04:00;;;;;;;29.23;26.00;;;11.10;99.90;;;;;;5027069;28;20310;-43
2022/04/23 04:06:26;;;;;;;29.37;25.83;;;11.20;99.90;;;;;;5021675;28;20442;-42
2022/04/23 04:08:53;;;;;;;28.73;25.47;;;11.10;99.90;;;;;;5025030;28;20924;-43
2022/04/23 04:11:19;;;;;;;30.33;25.43;;;11.20;99.90;;;;;;5023083;28;20448;-42
2022/04/23 04:13:44;;;;;;;29.47;26.37;;;11.10;99.90;;;;;;5024549;28;20429;-43
2022/04/23 04:16:12;;;;;;;31.90;26.20;;;11.40;99.90;;;;;;5028366;28;20197;-42
2022/04/23 04:18:37;;;;;;;29.03;25.90;;;11.30;99.90;;;;;;5034287;28;20198;-43
2022/04/23 04:21:04;;;;;;;29.63;24.80;;;11.10;99.90;;;;;;5026046;28;20442;-43
2022/04/23 04:23:30;;;;;;;29.40;26.30;;;11.20;99.90;;;;;;5021909;28;20194;-42
2022/04/23 04:25:55;;;;;;;29.80;26.60;;;11.00;99.90;;;;;;5031575;28;20461;-42
2022/04/23 04:28:21;;;;;;;30.53;25.90;;;11.10;99.90;;;;;;5028301;28;20205;-42
2022/04/23 04:33:32;;;;;;;31.63;27.93;;;11.10;99.90;;;;;;5032000;28;20191;-42
2022/04/23 04:35:57;;;;;;;31.37;27.97;;;11.10;99.90;;;;;;5029856;28;21163;-43
2022/04/23 04:38:23;;;;;;;30.10;26.60;;;11.10;99.90;;;;;;5027617;28;20714;-42
2022/04/23 04:40:48;;;;;;;32.33;25.93;;;11.10;99.90;;;;;;5031209;28;20532;-42
2022/04/23 04:43:14;;;;;;;32.00;26.90;;;11.10;99.90;;;;;;5031636;28;20589;-42
2022/04/23 04:45:40;;;;;;;29.10;25.93;;;10.90;99.90;;;;;;5031423;28;20214;-42
2022/04/23 04:48:05;;;;;;;29.57;26.43;;;11.20;99.90;;;;;;5031665;28;20194;-42
2022/04/23 04:50:31;;;;;;;30.60;26.87;;;11.30;99.90;;;;;;5031038;28;20220;-42
2022/04/23 04:52:58;;;;;;;30.40;26.87;;;11.30;99.90;;;;;;5017986;28;20191;-43
2022/04/23 04:55:24;;;;;;;31.57;28.03;;;11.30;99.90;;;;;;5029844;28;20186;-42
2022/04/23 04:57:49;;;;;;;30.63;27.37;;;11.30;99.90;;;;;;5031411;28;20456;-43
2022/04/23 05:00:16;;;;;;;32.33;26.90;;;11.30;99.90;;;;;;5030448;28;20277;-42
2022/04/23 05:02:42;;;;;;;32.03;27.50;;;11.40;99.90;;;;;;5031421;28;20201;-42
2022/04/23 05:05:08;;;;;;;31.27;27.40;;;11.50;99.90;;;;;;5029787;28;20476;-43
2022/04/23 05:07:34;;;;;;;30.60;25.60;;;11.40;99.90;;;;;;5021549;28;20507;-42
2022/04/23 05:10:00;;;;;;;30.07;26.87;;;11.40;99.90;;;;;;5030370;28;20433;-43
2022/04/23 05:12:26;;;;;;;30.60;25.80;;;11.50;99.90;;;;;;5031274;28;20276;-42
2022/04/23 05:14:52;;;;;;;28.00;25.03;;;11.50;99.90;;;;;;5030485;28;20557;-42
2022/04/23 05:17:17;;;;;;;31.10;27.80;;;11.40;99.90;;;;;;5045592;28;20201;-42
2022/04/23 05:19:44;;;;;;;30.53;26.43;;;11.40;99.90;;;;;;5050669;28;20200;-43
2022/04/23 05:22:09;;;;;;;28.67;25.67;;;11.50;99.90;;;;;;5020186;28;20218;-43
2022/04/23 05:24:35;;;;;;;31.07;27.77;;;11.50;99.90;;;;;;5028208;28;20951;-42
2022/04/23 05:27:01;;;;;;;34.20;28.40;;;11.50;99.90;;;;;;5030563;28;20232;-43
2022/04/23 05:29:27;;;;;;;35.20;28.27;;;11.50;99.90;;;;;;5028277;28;20194;-43
2022/04/23 05:31:52;;;;;;;29.23;25.17;;;11.50;99.90;;;;;;5029767;28;20205;-42
2022/04/23 05:34:18;;;;;;;32.60;28.07;;;11.60;99.90;;;;;;5020084;28;20195;-42
2022/04/23 05:36:44;;;;;;;30.80;27.27;;;11.40;99.90;;;;;;5025949;28;20248;-43
2022/04/23 05:39:10;;;;;;;32.20;27.80;;;11.70;99.90;;;;;;5024588;28;20706;-42
2022/04/23 05:41:36;;;;;;;31.10;27.80;;;11.80;99.90;;;;;;5028219;28;20856;-42
2022/04/23 05:44:02;;;;;;;36.07;28.97;;;11.50;99.90;;;;;;5030378;28;20483;-42
2022/04/23 05:46:28;;;;;;;30.93;27.30;;;11.60;99.90;;;;;;5030457;28;20178;-43
2022/04/23 05:48:55;;;;;;;33.57;28.40;;;11.50;99.90;;;;;;5029179;28;20524;-42
2022/04/23 05:51:21;;;;;;;33.23;28.27;;;11.60;99.90;;;;;;5029091;28;20421;-43
2022/04/23 05:53:46;;;;;;;32.03;28.40;;;11.70;99.90;;;;;;5026636;28;20439;-43
2022/04/23 05:56:12;;;;;;;32.50;28.57;;;11.70;99.90;;;;;;5030325;28;20216;-42
2022/04/23 05:58:38;;;;;;;31.13;27.70;;;11.80;99.90;;;;;;5026033;28;20213;-43
2022/04/23 06:01:04;;;;;;;32.70;26.90;;;12.00;99.90;;;;;;5027379;28;20450;-42
2022/04/23 06:03:30;;;;;;;32.03;27.67;;;12.20;99.90;;;;;;5030239;28;20544;-42
2022/04/23 06:05:56;;;;;;;31.67;28.27;;;12.30;99.90;;;;;;5028661;28;20472;-43
2022/04/23 06:08:21;;;;;;;32.33;28.83;;;12.50;99.90;;;;;;5019200;28;20198;-43
2022/04/23 06:10:47;;;;;;;32.53;29.00;;;12.60;99.90;;;;;;5029300;28;20488;-42
2022/04/23 06:13:13;;;;;;;34.30;27.87;;;12.80;99.90;;;;;;5029606;28;20553;-42
2022/04/23 06:15:39;;;;;;;32.27;27.90;;;13.00;99.90;;;;;;5029289;28;20638;-43
2022/04/23 06:18:05;;;;;;;35.07;29.00;;;13.10;99.90;;;;;;5029006;28;20282;-42
2022/04/23 06:20:30;;;;;;;33.10;29.50;;;13.20;99.90;;;;;;5024354;28;20203;-43
2022/04/23 06:22:56;;;;;;;35.63;30.40;;;13.40;99.90;;;;;;5022243;28;20442;-43
2022/04/23 06:25:22;;;;;;;32.10;28.57;;;13.50;99.90;;;;;;5027951;28;20198;-43
2022/04/23 06:27:48;;;;;;;30.83;27.03;;;13.70;99.90;;;;;;5029011;28;20194;-43
2022/04/23 06:30:15;;;;;;;31.80;28.37;;;13.80;99.90;;;;;;5028089;28;20178;-42
2022/04/23 06:32:41;;;;;;;31.40;28.00;;;13.90;99.90;;;;;;5028653;28;20823;-42
2022/04/23 06:35:08;;;;;;;31.33;27.87;;;14.00;99.90;;;;;;5030050;28;20433;-42
2022/04/23 06:37:44;;;;;;;32.23;28.73;;;14.00;99.90;;;;;;5022183;28;20222;-42
2022/04/23 06:40:11;;;;;;;31.83;28.40;;;14.10;99.90;;;;;;5024973;28;20451;-43
2022/04/23 06:42:38;;;;;;;32.30;28.80;;;14.20;99.90;;;;;;5030324;28;20994;-43
2022/04/23 06:45:05;;;;;;;31.70;28.33;;;14.30;99.90;;;;;;5028985;28;20930;-43
2022/04/23 06:47:31;;;;;;;31.33;27.93;;;14.40;99.90;;;;;;5029489;28;20421;-43
2022/04/23 06:49:58;;;;;;;31.43;28.13;;;14.40;99.90;;;;;;5024942;28;20437;-43
2022/04/23 06:52:25;;;;;;;32.07;28.53;;;14.50;99.90;;;;;;5018175;28;20274;-43
2022/04/23 06:54:52;;;;;;;32.77;29.23;;;14.60;99.90;;;;;;5027146;28;20429;-42
2022/04/23 06:57:18;;;;;;;30.10;26.80;;;14.70;99.90;;;;;;5028667;28;20484;-43
2022/04/23 06:59:43;;;;;;;30.40;27.30;;;14.80;99.90;;;;;;5023464;28;20488;-43
2022/04/23 07:02:09;;;;;;;30.73;27.50;;;14.90;99.90;;;;;;5026457;28;20182;-43
2022/04/23 07:04:35;;;;;;;31.70;28.23;;;15.00;99.90;;;;;;5025800;28;20580;-43
2022/04/23 07:07:01;;;;;;;30.50;27.37;;;15.10;99.90;;;;;;5026894;28;20248;-43
2022/04/23 07:09:26;;;;;;;32.07;28.73;;;15.20;99.90;;;;;;5014400;28;20730;-43
2022/04/23 07:11:52;;;;;;;29.93;26.83;;;15.30;99.90;;;;;;5028507;28;20273;-43
2022/04/23 07:14:18;;;;;;;30.33;27.10;;;15.40;99.90;;;;;;5029069;28;20187;-43
2022/04/23 07:16:44;;;;;;;29.70;26.60;;;15.40;99.90;;;;;;5029025;28;20276;-43
2022/04/23 07:19:11;;;;;;;29.97;26.73;;;15.40;99.90;;;;;;5027599;28;20519;-43
2022/04/23 07:21:37;;;;;;;31.23;27.93;;;15.30;99.90;;;;;;5028673;28;20210;-43
2022/04/23 07:24:03;;;;;;;30.87;27.63;;;15.30;99.90;;;;;;5020609;28;20467;-43
2022/04/23 07:26:29;;;;;;;30.43;27.23;;;15.20;99.90;;;;;;5028849;28;20441;-43
2022/04/23 07:28:55;;;;;;;31.00;27.80;;;15.20;99.90;;;;;;5028960;28;20421;-43
2022/04/23 07:31:21;;;;;;;31.70;28.30;;;15.10;99.90;;;;;;5028417;28;20776;-43
2022/04/23 07:39:15;;;;;;;31.70;28.30;;;15.00;99.90;;;;;;5020316;28;20429;-43
2022/04/23 07:41:41;;;;;;;31.70;28.33;;;15.00;99.90;;;;;;5028115;28;20428;-43
2022/04/23 07:44:06;;;;;;;31.27;28.00;;;15.00;99.90;;;;;;5028682;28;20205;-43
2022/04/23 07:46:32;;;;;;;33.13;29.23;;;15.00;99.90;;;;;;5028783;28;20264;-43
2022/04/23 07:48:58;;;;;;;31.23;27.93;;;15.00;99.90;;;;;;5028579;28;21011;-43
2022/04/23 07:51:27;;;;;;;31.77;28.40;;;14.90;99.90;;;;;;5028284;28;20221;-43
2022/04/23 07:53:53;;;;;;;32.20;28.80;;;14.90;99.90;;;;;;5017277;28;21114;-43
2022/04/23 07:56:19;;;;;;;33.03;29.47;;;14.90;99.90;;;;;;5025587;28;20461;-43
2022/04/23 07:58:45;;;;;;;30.53;27.30;;;14.90;99.90;;;;;;5028812;28;20469;-43
2022/04/23 08:01:10;;;;;;;32.87;29.10;;;14.90;99.90;;;;;;5027772;28;20191;-43
2022/04/23 08:03:36;;;;;;;32.67;29.20;;;14.90;99.90;;;;;;5029076;28;20187;-43
2022/04/23 08:06:02;;;;;;;33.97;28.53;;;14.90;99.90;;;;;;5031500;28;20716;-43
2022/04/23 08:08:28;;;;;;;30.97;27.67;;;14.90;99.90;;;;;;5024152;28;20186;-43
2022/04/23 08:10:54;;;;;;;31.10;27.70;;;15.00;99.90;;;;;;5028328;28;21035;-43
2022/04/23 08:13:20;;;;;;;35.20;28.97;;;15.00;99.90;;;;;;5032254;28;20325;-43
2022/04/23 08:15:46;;;;;;;31.83;28.40;;;15.00;99.90;;;;;;5032155;28;20239;-43
2022/04/23 08:18:12;;;;;;;31.70;27.20;;;15.10;99.90;;;;;;5032039;28;20825;-43
2022/04/23 08:20:41;;;;;;;29.47;26.40;;;15.10;99.90;;;;;;5031331;28;20428;-43
2022/04/23 08:23:07;;;;;;;29.30;26.10;;;15.10;99.90;;;;;;5027150;28;20438;-43
2022/04/23 08:25:33;;;;;;;27.10;24.20;;;15.20;99.90;;;;;;5030347;28;20554;-43
2022/04/23 08:30:34;;;;;;;28.57;25.57;;;15.20;99.90;;;;;;5031951;28;20460;-43
2022/04/23 08:30:45;;;;;;;27.60;24.60;;;15.20;99.90;;;;;;5031103;28;20302;-43
2022/04/23 08:33:11;;;;;;;33.10;26.60;;;15.20;99.90;;;;;;5031966;28;20954;-43
2022/04/23 08:35:38;;;;;;;28.43;25.33;;;15.20;99.90;;;;;;5032060;28;20500;-43
2022/04/23 08:38:04;;;;;;;26.97;24.13;;;15.30;99.90;;;;;;5025481;28;20179;-43
2022/04/23 08:40:44;;;;;;;27.70;24.70;;;15.30;99.90;;;;;;5026878;28;20560;-43
2022/04/23 08:43:10;;;;;;;26.43;21.83;;;15.40;99.90;;;;;;5031354;28;20421;-43
2022/04/23 08:45:37;;;;;;;26.60;23.63;;;15.40;99.90;;;;;;5031846;28;21185;-43
2022/04/23 08:48:14;;;;;;;30.00;26.17;;;15.50;99.90;;;;;;5031609;28;20448;-42
2022/04/23 08:50:42;;;;;;;30.07;26.73;;;15.60;99.90;;;;;;5031251;28;20452;-43
2022/04/23 08:53:15;;;;;;;29.30;26.13;;;15.60;99.90;;;;;;5026840;28;20436;-43
2022/04/23 08:55:44;;;;;;;30.63;25.87;;;15.70;99.90;;;;;;5026256;28;20471;-43
2022/04/23 08:58:15;;;;;;;26.53;23.77;;;15.70;99.90;;;;;;5031273;28;20470;-43
2022/04/23 09:00:41;;;;;;;28.37;25.00;;;15.80;99.90;;;;;;5030873;28;20425;-43
2022/04/23 09:03:13;;;;;;;27.63;24.00;;;15.90;99.90;;;;;;5030939;28;20428;-43
2022/04/23 09:05:39;;;;;;;28.83;25.57;;;16.00;99.90;;;;;;5030558;28;20468;-43
2022/04/23 09:08:07;;;;;;;31.03;27.63;;;16.00;99.90;;;;;;5027072;28;20961;-43
2022/04/23 09:10:43;;;;;;;31.57;28.00;;;16.10;99.90;;;;;;5024213;28;20193;-43
2022/04/23 09:13:09;;;;;;;33.50;28.37;;;16.10;99.90;;;;;;5030004;28;20774;-43
2022/04/23 09:24:11;;;;;;;31.50;27.40;;;16.30;99.90;;;;;;5025626;28;20452;-42
2022/04/23 09:26:40;;;;;;;32.07;27.90;;;16.20;99.90;;;;;;5026410;28;20429;-43
2022/04/23 09:29:17;;;;;;;31.53;27.80;;;16.10;99.90;;;;;;5030575;28;20423;-43
2022/04/23 09:31:44;;;;;;;33.43;28.60;;;16.00;99.90;;;;;;5030050;28;20424;-43
2022/04/23 09:34:17;;;;;;;30.80;26.50;;;16.10;99.90;;;;;;5029652;28;20508;-43
2022/04/23 09:36:50;;;;;;;28.80;24.80;;;16.10;99.90;;;;;;5030578;28;20556;-43
2022/04/23 09:39:31;;;;;;;27.20;23.77;;;16.10;99.90;;;;;;5020704;28;20469;-43
2022/04/23 09:42:19;;;;;;;24.43;21.07;;;16.30;99.90;;;;;;5029702;28;20427;-42
2022/04/23 09:44:46;;;;;;;23.27;20.77;;;16.40;99.90;;;;;;5029358;28;20895;-43
2022/04/23 09:47:32;;;;;;;23.43;20.87;;;16.50;99.90;;;;;;5030421;28;20444;-43
2022/04/23 09:49:58;;;;;;;23.30;20.23;;;16.50;99.90;;;;;;5029596;28;20433;-43
2022/04/23 09:52:30;;;;;;;20.20;18.20;;;16.50;99.90;;;;;;5030423;28;20432;-42
2022/04/23 09:54:57;;;;;;;16.73;14.93;;;16.50;99.90;;;;;;5020973;28;20789;-43
2022/04/23 09:57:24;;;;;;;13.53;12.13;;;16.70;99.80;;;;;;5030124;28;20487;-43
2022/04/23 09:59:52;;;;;;;14.87;13.27;;;16.90;99.00;;;;;;5029788;28;20435;-42
2022/04/23 10:02:19;;;;;;;14.20;12.80;;;17.10;98.40;;;;;;5029887;28;20841;-43
2022/04/23 10:04:46;;;;;;;12.67;11.37;;;17.20;96.70;;;;;;5029275;28;21011;-43
2022/04/23 10:07:17;;;;;;;14.10;12.60;;;17.20;96.60;;;;;;5030123;28;20428;-43
2022/04/23 10:09:45;;;;;;;13.93;12.53;;;17.10;96.60;;;;;;5020422;28;20507;-42
2022/04/23 10:12:19;;;;;;;15.93;13.87;;;17.10;96.70;;;;;;5029792;28;20894;-43
2022/04/23 10:14:57;;;;;;;16.00;14.23;;;17.10;96.70;;;;;;5029931;28;20835;-42
2022/04/23 10:17:24;;;;;;;14.50;13.03;;;17.00;96.60;;;;;;5028395;28;20433;-42
2022/04/23 10:19:50;;;;;;;14.50;12.90;;;16.90;97.40;;;;;;5029539;28;20856;-43
2022/04/23 10:22:25;;;;;;;14.70;13.17;;;16.90;97.00;;;;;;5028547;28;20430;-42
2022/04/23 10:25:05;;;;;;;15.07;13.47;;;16.90;97.20;;;;;;5017740;28;20467;-43
2022/04/23 10:27:33;;;;;;;15.67;13.30;;;16.90;96.90;;;;;;5027967;28;20471;-43
2022/04/23 10:30:02;;;;;;;15.37;13.83;;;16.80;96.60;;;;;;5029245;28;20452;-42
2022/04/23 10:32:39;;;;;;;14.20;12.70;;;16.70;96.70;;;;;;5029488;28;20425;-42
2022/04/23 10:35:25;;;;;;;15.70;14.17;;;16.60;97.40;;;;;;5029460;28;20437;-43
2022/04/23 10:37:51;;;;;;;16.30;13.97;;;16.70;97.70;;;;;;5025111;28;20429;-43
2022/04/23 10:40:20;;;;;;;15.40;13.90;;;16.80;97.00;;;;;;5015903;28;20791;-43
2022/04/23 10:43:04;;;;;;;15.90;14.20;;;16.90;96.60;;;;;;5029229;28;20244;-43
2022/04/23 10:45:34;;;;;;;15.33;13.73;;;17.00;96.80;;;;;;5016326;28;20506;-43
2022/04/23 10:48:19;;;;;;;15.57;13.97;;;17.00;96.60;;;;;;5027554;28;20952;-43
2022/04/23 10:51:08;;;;;;;17.23;15.47;;;17.10;96.00;;;;;;5028483;28;20466;-42
2022/04/23 10:53:42;;;;;;;17.17;15.37;;;17.10;95.80;;;;;;5028122;28;20440;-42
2022/04/23 10:56:13;;;;;;;15.97;14.20;;;17.20;96.10;;;;;;5026969;28;20922;-42
2022/04/23 10:58:40;;;;;;;15.23;12.00;;;17.30;95.30;;;;;;5029061;28;20452;-42
2022/04/23 11:01:26;;;;;;;14.77;13.27;;;17.10;95.60;;;;;;5027169;28;20788;-43
2022/04/23 11:04:08;;;;;;;16.43;13.50;;;17.10;95.90;;;;;;5029284;28;20944;-43
2022/04/23 11:12:28;;;;;;;17.80;15.37;;;17.40;94.60;;;;;;5025423;28;20413;-43
2022/04/23 11:14:56;;;;;;;18.40;16.50;;;17.40;94.60;;;;;;5029014;28;20428;-43
2022/04/23 11:17:23;;;;;;;17.33;15.17;;;17.30;94.80;;;;;;5028755;28;20428;-42
2022/04/23 11:19:53;;;;;;;16.37;14.77;;;17.40;94.70;;;;;;5028493;28;21100;-43
2022/04/23 11:22:20;;;;;;;18.13;16.33;;;17.50;96.10;;;;;;5028793;28;20425;-43
2022/04/23 11:24:48;;;;;;;16.97;14.20;;;17.60;93.70;;;;;;5018025;28;20572;-43
2022/04/23 11:27:28;;;;;;;17.60;15.50;;;17.70;94.00;;;;;;5028008;28;20432;-42
2022/04/23 11:29:56;;;;;;;15.40;13.80;;;17.60;93.60;;;;;;5028178;28;20451;-43
2022/04/23 11:32:26;;;;;;;17.90;15.07;;;17.60;94.00;;;;;;5027345;28;20465;-42
2022/04/23 11:35:04;;;;;;;16.50;14.63;;;17.70;93.60;;;;;;5028997;28;20959;-43
2022/04/23 11:37:33;;;;;;;16.40;14.43;;;17.60;93.30;;;;;;5028823;28;20421;-43
2022/04/23 11:40:06;;;;;;;15.47;13.97;;;17.60;93.10;;;;;;5022301;28;20446;-43
2022/04/23 11:42:47;;;;;;;16.10;13.80;;;17.50;93.20;;;;;;5032823;28;20424;-42
2022/04/23 11:45:15;;;;;;;14.20;12.70;;;17.50;92.90;;;;;;5031234;28;20464;-43
2022/04/23 11:47:41;;;;;;;14.30;12.80;;;17.50;92.90;;;;;;5032513;28;20428;-43
2022/04/23 11:50:18;;;;;;;15.20;13.60;;;17.70;92.70;;;;;;5032191;28;20425;-43
2022/04/23 11:52:55;;;;;;;15.57;13.90;;;17.80;92.60;;;;;;5032303;28;20427;-43
2022/04/23 11:55:23;;;;;;;14.73;13.23;;;17.80;92.00;;;;;;5024704;28;20437;-43
2022/04/23 11:58:02;;;;;;;16.00;13.83;;;17.90;92.50;;;;;;5032170;28;20460;-43
2022/04/23 12:00:33;;;;;;;17.03;14.03;;;17.90;92.20;;;;;;5032149;28;20986;-43
2022/04/23 12:02:59;;;;;;;18.43;15.00;;;17.90;92.10;;;;;;5032314;28;20463;-43
2022/04/23 12:05:28;;;;;;;14.27;12.80;;;17.70;91.60;;;;;;5031354;28;20471;-43
2022/04/23 12:07:55;;;;;;;15.70;14.10;;;17.70;92.20;;;;;;5032168;28;20834;-43
2022/04/23 12:10:29;;;;;;;16.77;14.97;;;17.70;92.90;;;;;;5022977;28;20471;-42
2022/04/23 12:13:06;;;;;;;18.47;15.70;;;17.60;92.30;;;;;;5032247;28;20440;-43
2022/04/23 12:15:32;;;;;;;19.30;17.03;;;17.50;92.40;;;;;;5026426;28;20428;-43
2022/04/23 12:17:58;;;;;;;19.70;16.43;;;17.50;92.70;;;;;;5032128;28;20432;-43
2022/04/23 12:20:25;;;;;;;17.20;15.40;;;17.50;92.80;;;;;;5031239;28;20818;-43
2022/04/23 12:23:07;;;;;;;16.30;14.60;;;17.50;93.70;;;;;;5032270;28;20195;-43
2022/04/23 12:25:35;;;;;;;17.53;15.00;;;17.50;92.70;;;;;;5024990;28;20472;-43
2022/04/23 12:42:10;;;;;;;17.80;15.70;;;17.50;93.00;;;;;;5023250;28;20417;-43
2022/04/23 12:44:40;;;;;;;17.50;15.57;;;17.50;92.80;;;;;;5025931;28;20453;-42
2022/04/23 12:47:08;;;;;;;17.40;15.37;;;17.40;93.00;;;;;;5031490;28;20429;-42
2022/04/23 12:49:50;;;;;;;17.20;15.40;;;17.40;92.70;;;;;;5031066;28;20432;-42
2022/04/23 12:52:22;;;;;;;16.73;14.93;;;17.40;92.90;;;;;;5031017;28;20429;-43
2022/04/23 12:55:09;;;;;;;18.93;15.47;;;17.30;92.90;;;;;;5025234;28;21177;-43
2022/04/23 12:57:34;;;;;;;15.57;13.97;;;17.30;92.20;;;;;;5025072;28;20846;-43
2022/04/23 13:00:00;;;;;;;15.57;14.07;;;17.30;92.90;;;;;;5031138;28;20463;-43
2022/04/23 13:02:37;;;;;;;16.73;15.00;;;17.30;92.70;;;;;;5031352;28;20196;-43
2022/04/23 13:05:05;;;;;;;15.77;14.07;;;17.20;92.80;;;;;;5030549;28;20251;-43
2022/04/23 13:10:16;;;;;;;16.07;14.37;;;17.30;92.40;;;;;;5021651;28;20437;-43
2022/04/23 13:12:41;;;;;;;15.70;13.30;;;17.30;92.90;;;;;;5028647;28;20428;-43